Time;durP1;ratioP1;P1;durP2;ratioP2;P2;SDS_P1;SDS_P2;PMS_P1;PMS_P2;Temp;Humidity;BMP_temperature;BMP_pressure;BME280_temperature;BME280_humidity;BME280_pressure;Samples;Min_cycle;Max_cycle;Signal;HPM_P1;HPM_P2
2023/05/12 00:00:23;;;;;;;9.77;8.73;;;13.10;99.90;;;;;;5099573;28;20466;-59
2023/05/12 00:02:50;;;;;;;10.53;9.43;;;13.10;99.90;;;;;;5099787;28;20881;-58
2023/05/12 00:05:17;;;;;;;11.07;9.97;;;13.10;99.90;;;;;;5081609;28;20457;-57
2023/05/12 00:07:44;;;;;;;10.13;9.20;;;13.10;99.90;;;;;;5079673;28;20831;-58
2023/05/12 00:10:11;;;;;;;9.33;8.33;;;13.10;99.90;;;;;;5079436;28;20937;-58
2023/05/12 00:12:39;;;;;;;10.13;9.13;;;13.10;99.90;;;;;;5079330;28;20470;-58
2023/05/12 00:15:07;;;;;;;11.10;10.00;;;13.00;99.90;;;;;;5078968;28;20428;-60
2023/05/12 00:17:35;;;;;;;11.23;10.10;;;13.00;99.90;;;;;;5079210;28;20472;-60
2023/05/12 00:20:03;;;;;;;10.63;9.53;;;13.00;99.90;;;;;;5079434;28;20472;-59
2023/05/12 00:22:31;;;;;;;11.13;10.03;;;13.00;99.90;;;;;;5073571;28;20460;-58
2023/05/12 00:24:58;;;;;;;10.80;9.73;;;13.00;99.90;;;;;;5079035;28;20440;-57
2023/05/12 00:27:26;;;;;;;10.77;9.67;;;13.00;99.90;;;;;;5079221;28;20461;-59
2023/05/12 00:29:53;;;;;;;11.27;10.17;;;12.90;99.90;;;;;;5078809;28;20459;-59
2023/05/12 00:32:21;;;;;;;11.40;10.23;;;12.90;99.90;;;;;;5078402;28;20886;-60
2023/05/12 00:34:52;;;;;;;12.47;11.27;;;12.90;99.90;;;;;;5078376;28;20559;-60
2023/05/12 00:37:19;;;;;;;11.00;9.90;;;12.90;99.90;;;;;;5078613;28;20461;-61
2023/05/12 00:39:46;;;;;;;10.97;9.87;;;12.90;99.90;;;;;;5078765;28;20462;-60
2023/05/12 00:42:14;;;;;;;10.27;9.20;;;12.90;99.90;;;;;;5079086;28;20436;-59
2023/05/12 00:44:41;;;;;;;8.93;8.03;;;12.80;99.90;;;;;;5078497;28;20465;-61
2023/05/12 00:47:09;;;;;;;8.40;7.53;;;12.80;99.90;;;;;;5078488;28;20930;-61
2023/05/12 00:49:36;;;;;;;7.57;6.77;;;12.80;99.90;;;;;;5078789;28;20882;-60
2023/05/12 00:52:06;;;;;;;8.57;7.40;;;12.80;99.90;;;;;;5077671;28;20551;-60
2023/05/12 00:54:35;;;;;;;7.93;6.80;;;12.70;99.90;;;;;;5078116;28;20468;-60
2023/05/12 00:57:02;;;;;;;6.73;6.07;;;12.70;99.90;;;;;;5077940;28;20469;-60
2023/05/12 00:59:29;;;;;;;6.03;5.43;;;12.80;99.90;;;;;;5078552;28;20476;-61
2023/05/12 01:01:57;;;;;;;7.20;6.50;;;12.70;99.90;;;;;;5077417;28;20436;-60
2023/05/12 01:04:24;;;;;;;7.93;6.80;;;12.70;99.90;;;;;;5078131;28;20552;-60
2023/05/12 01:06:56;;;;;;;7.17;6.43;;;12.80;99.90;;;;;;5078288;28;20887;-60
2023/05/12 01:09:25;;;;;;;6.70;6.03;;;12.80;99.90;;;;;;5078178;28;20461;-59
2023/05/12 01:11:52;;;;;;;6.50;5.90;;;12.80;99.90;;;;;;5078215;28;20471;-59
2023/05/12 01:14:19;;;;;;;6.70;6.10;;;12.80;99.90;;;;;;5077447;28;20497;-58
2023/05/12 01:16:52;;;;;;;6.87;5.70;;;12.80;99.90;;;;;;5078104;28;20465;-59
2023/05/12 01:19:32;;;;;;;5.77;5.20;;;12.80;99.90;;;;;;5077652;28;20461;-59
2023/05/12 01:22:01;;;;;;;6.77;6.17;;;12.90;99.90;;;;;;5077544;28;20465;-56
2023/05/12 01:24:32;;;;;;;6.07;5.40;;;12.90;99.90;;;;;;5077394;28;20479;-58
2023/05/12 01:27:02;;;;;;;5.20;4.70;;;12.90;99.90;;;;;;5077995;28;20443;-59
2023/05/12 01:29:29;;;;;;;5.40;4.90;;;12.90;99.90;;;;;;5077861;28;20480;-55
2023/05/12 01:31:57;;;;;;;5.20;4.70;;;12.80;99.90;;;;;;5093132;28;20507;-59
2023/05/12 01:34:24;;;;;;;5.40;4.90;;;12.80;99.90;;;;;;5096797;28;20492;-57
2023/05/12 01:36:51;;;;;;;5.40;4.20;;;12.80;99.90;;;;;;5097501;28;20750;-60
2023/05/12 01:39:19;;;;;;;4.87;4.37;;;12.80;99.90;;;;;;5097586;28;20500;-59
2023/05/12 01:41:46;;;;;;;5.43;4.93;;;12.80;99.90;;;;;;5097612;28;20486;-60
2023/05/12 01:44:14;;;;;;;5.03;4.53;;;12.80;99.90;;;;;;5098227;28;20829;-60
2023/05/12 01:46:41;;;;;;;5.27;4.77;;;12.80;99.90;;;;;;5097328;28;20435;-59
2023/05/12 01:49:09;;;;;;;6.17;5.53;;;12.70;99.90;;;;;;5097640;28;20471;-60
2023/05/12 01:51:36;;;;;;;7.23;6.07;;;12.70;99.90;;;;;;5097693;28;20464;-60
2023/05/12 01:54:03;;;;;;;6.27;5.43;;;12.70;99.90;;;;;;5097484;28;20488;-59
2023/05/12 01:56:30;;;;;;;5.97;5.33;;;12.70;99.90;;;;;;5097287;28;20478;-59
2023/05/12 01:58:57;;;;;;;7.03;6.33;;;12.70;99.90;;;;;;5097132;28;20488;-59
2023/05/12 02:01:27;;;;;;;8.07;7.27;;;12.70;99.90;;;;;;5097510;28;20435;-57
2023/05/12 02:03:54;;;;;;;7.10;6.33;;;12.70;99.90;;;;;;5097528;28;20554;-60
2023/05/12 02:06:22;;;;;;;7.40;6.60;;;12.70;99.90;;;;;;5096524;28;20467;-59
2023/05/12 02:08:49;;;;;;;8.40;7.50;;;12.70;99.90;;;;;;5097640;28;20517;-58
2023/05/12 02:11:17;;;;;;;8.40;7.50;;;12.70;99.90;;;;;;5097049;28;20464;-56
2023/05/12 02:13:44;;;;;;;9.00;8.20;;;12.70;99.90;;;;;;5096901;28;20528;-58
2023/05/12 02:16:11;;;;;;;9.87;8.97;;;12.70;99.90;;;;;;5097480;28;20468;-56
2023/05/12 02:18:40;;;;;;;9.37;8.57;;;12.70;99.90;;;;;;5097418;28;20460;-60
2023/05/12 02:21:07;;;;;;;8.40;7.50;;;12.70;99.90;;;;;;5097188;28;20550;-57
2023/05/12 02:23:34;;;;;;;9.60;8.67;;;12.70;99.90;;;;;;5096703;28;20463;-59
2023/05/12 02:26:01;;;;;;;10.70;8.70;;;12.70;99.90;;;;;;5097324;28;20439;-56
2023/05/12 02:28:28;;;;;;;8.80;7.90;;;12.70;99.90;;;;;;5097155;28;20464;-59
2023/05/12 02:30:55;;;;;;;10.30;9.03;;;12.70;99.90;;;;;;5096359;28;20491;-59
2023/05/12 02:33:23;;;;;;;9.63;8.63;;;12.60;99.90;;;;;;5096939;28;21015;-59
2023/05/12 02:35:51;;;;;;;11.83;9.20;;;12.60;99.90;;;;;;5097049;28;20882;-60
2023/05/12 02:38:18;;;;;;;9.43;8.53;;;12.50;99.90;;;;;;5096951;28;20467;-59
2023/05/12 02:40:47;;;;;;;10.13;9.10;;;12.50;99.90;;;;;;5097018;28;20897;-58
2023/05/12 02:43:14;;;;;;;10.83;8.63;;;12.50;99.90;;;;;;5097221;28;20796;-59
2023/05/12 02:45:41;;;;;;;8.73;7.77;;;12.50;99.90;;;;;;5098945;28;20464;-59
2023/05/12 02:48:08;;;;;;;9.83;8.07;;;12.50;99.90;;;;;;5101069;28;20472;-59
2023/05/12 02:50:35;;;;;;;8.10;7.03;;;12.40;99.90;;;;;;5101031;28;20460;-59
2023/05/12 02:53:04;;;;;;;9.03;8.13;;;12.40;99.90;;;;;;5100037;28;20460;-59
2023/05/12 02:55:31;;;;;;;7.97;7.27;;;12.40;99.90;;;;;;5100860;28;20435;-59
2023/05/12 02:57:58;;;;;;;8.60;7.70;;;12.30;99.90;;;;;;5100801;28;20563;-59
2023/05/12 03:00:25;;;;;;;7.10;6.37;;;12.30;99.90;;;;;;5100733;28;20465;-58
2023/05/12 03:02:52;;;;;;;7.83;6.33;;;12.30;99.90;;;;;;5100613;28;20464;-59
2023/05/12 03:05:20;;;;;;;6.73;6.10;;;12.30;99.90;;;;;;5100618;28;20465;-59
2023/05/12 03:07:48;;;;;;;6.33;5.73;;;12.30;99.90;;;;;;5100023;28;20472;-59
2023/05/12 03:10:17;;;;;;;6.63;6.03;;;12.20;99.90;;;;;;5100550;28;20438;-58
2023/05/12 03:12:44;;;;;;;7.50;6.70;;;12.20;99.90;;;;;;5079879;28;20461;-57
2023/05/12 03:15:12;;;;;;;7.57;6.80;;;12.20;99.90;;;;;;5080011;28;21031;-59
2023/05/12 03:17:39;;;;;;;8.80;6.80;;;12.20;99.90;;;;;;5079962;28;20461;-59
2023/05/12 03:20:07;;;;;;;10.00;7.00;;;12.10;99.90;;;;;;5085738;28;20490;-59
2023/05/12 03:22:35;;;;;;;7.43;6.73;;;12.10;99.90;;;;;;5091280;28;20475;-58
2023/05/12 03:25:04;;;;;;;7.17;6.47;;;12.00;99.90;;;;;;5079845;28;20432;-57
2023/05/12 03:27:32;;;;;;;7.60;6.40;;;12.00;99.90;;;;;;5080186;28;20538;-59
2023/05/12 03:30:00;;;;;;;6.70;6.10;;;12.00;99.90;;;;;;5080435;28;20466;-59
2023/05/12 03:32:28;;;;;;;6.87;6.17;;;12.00;99.90;;;;;;5099846;28;20487;-59
2023/05/12 03:34:55;;;;;;;6.80;6.20;;;11.90;99.90;;;;;;5099781;28;20557;-56
2023/05/12 03:37:22;;;;;;;7.50;5.30;;;11.90;99.90;;;;;;5100223;28;20435;-59
2023/05/12 03:39:49;;;;;;;6.73;6.07;;;12.00;99.90;;;;;;5099634;28;20760;-58
2023/05/12 03:42:16;;;;;;;6.73;6.00;;;12.00;99.90;;;;;;5100008;28;20478;-59
2023/05/12 03:44:45;;;;;;;5.70;5.20;;;11.90;99.90;;;;;;5099767;28;20460;-55
2023/05/12 03:47:12;;;;;;;5.70;4.97;;;11.90;99.90;;;;;;5099953;28;20555;-59
2023/05/12 03:49:39;;;;;;;6.67;4.80;;;11.90;99.90;;;;;;5099849;28;20464;-59
2023/05/12 03:52:07;;;;;;;4.63;4.23;;;11.90;99.90;;;;;;5100222;28;20471;-59
2023/05/12 03:54:34;;;;;;;5.13;4.30;;;11.80;99.90;;;;;;5099073;28;20473;-59
2023/05/12 03:57:02;;;;;;;7.50;4.23;;;11.80;99.90;;;;;;5099018;28;20471;-59
2023/05/12 03:59:31;;;;;;;6.20;4.93;;;11.80;99.90;;;;;;5099692;28;20470;-58
2023/05/12 04:02:00;;;;;;;5.57;4.30;;;11.80;99.90;;;;;;5099119;28;20460;-59
2023/05/12 04:04:27;;;;;;;5.00;4.50;;;11.80;99.90;;;;;;5099125;28;20460;-59
2023/05/12 04:06:55;;;;;;;6.00;4.70;;;11.80;99.90;;;;;;5099327;28;20740;-57
2023/05/12 04:09:22;;;;;;;5.50;4.20;;;11.80;99.90;;;;;;5099122;28;20453;-59
2023/05/12 04:11:50;;;;;;;6.17;4.93;;;11.80;99.90;;;;;;5099537;28;20456;-59
2023/05/12 04:14:17;;;;;;;6.10;4.60;;;11.80;99.90;;;;;;5099476;28;20493;-58
2023/05/12 04:16:44;;;;;;;8.00;5.00;;;11.80;99.90;;;;;;5099261;28;20469;-59
2023/05/12 04:19:13;;;;;;;6.33;5.73;;;11.80;99.90;;;;;;5099139;28;20467;-59
2023/05/12 04:21:40;;;;;;;5.67;4.73;;;11.70;99.90;;;;;;5098946;28;20464;-59
2023/05/12 04:24:07;;;;;;;7.57;5.33;;;11.80;99.90;;;;;;5096512;28;20786;-57
2023/05/12 04:26:34;;;;;;;6.20;5.50;;;11.80;99.90;;;;;;5097413;28;20515;-59
2023/05/12 04:29:02;;;;;;;7.50;5.27;;;11.80;99.90;;;;;;5078762;28;20461;-59
2023/05/12 04:31:29;;;;;;;6.83;5.20;;;11.70;99.90;;;;;;5077886;28;20485;-59
2023/05/12 04:33:56;;;;;;;8.03;5.03;;;11.70;99.90;;;;;;5077420;28;20512;-56
2023/05/12 04:36:24;;;;;;;6.57;4.57;;;11.70;99.90;;;;;;5077988;28;20435;-59
2023/05/12 04:38:54;;;;;;;8.73;4.80;;;11.70;99.90;;;;;;5078634;28;20435;-59
2023/05/12 04:41:21;;;;;;;4.60;4.20;;;11.60;99.90;;;;;;5077968;28;21060;-59
2023/05/12 04:43:49;;;;;;;5.70;4.60;;;11.60;99.90;;;;;;5079219;28;20438;-57
2023/05/12 04:46:21;;;;;;;7.63;4.30;;;11.60;99.90;;;;;;5077683;28;20446;-58
2023/05/12 04:48:48;;;;;;;4.80;4.27;;;11.60;99.90;;;;;;5078502;28;20718;-56
2023/05/12 04:51:15;;;;;;;4.47;4.07;;;11.60;99.90;;;;;;5090835;28;20474;-58
2023/05/12 04:53:43;;;;;;;5.80;5.10;;;11.70;99.90;;;;;;5097779;28;20453;-57
2023/05/12 04:56:10;;;;;;;7.03;5.83;;;11.70;99.90;;;;;;5099158;28;20467;-55
2023/05/12 04:58:38;;;;;;;9.70;6.17;;;11.70;99.90;;;;;;5082373;28;20469;-57
2023/05/12 05:01:06;;;;;;;7.33;5.20;;;11.70;99.90;;;;;;5077772;28;20460;-58
2023/05/12 05:03:33;;;;;;;7.60;5.73;;;11.80;99.90;;;;;;5079094;28;20489;-59
2023/05/12 05:06:00;;;;;;;6.97;5.20;;;11.80;99.90;;;;;;5097679;28;20468;-57
2023/05/12 05:08:27;;;;;;;6.30;4.87;;;11.90;99.90;;;;;;5098407;28;20474;-57
2023/05/12 05:10:56;;;;;;;5.20;4.70;;;12.00;99.90;;;;;;5096473;28;20463;-56
2023/05/12 05:13:23;;;;;;;6.33;4.83;;;12.00;99.90;;;;;;5094427;28;20455;-58
2023/05/12 05:15:51;;;;;;;5.40;4.73;;;12.00;99.90;;;;;;5096823;28;20458;-59
2023/05/12 05:18:18;;;;;;;5.70;5.20;;;12.00;99.90;;;;;;5096564;28;20431;-60
2023/05/12 05:20:45;;;;;;;5.00;4.50;;;12.10;99.90;;;;;;5096369;28;20431;-60
2023/05/12 05:23:12;;;;;;;5.63;5.00;;;12.10;99.90;;;;;;5096633;28;20868;-60
2023/05/12 05:25:41;;;;;;;5.37;4.50;;;12.20;99.90;;;;;;5096972;28;20499;-59
2023/05/12 05:28:11;;;;;;;8.63;5.33;;;12.20;99.90;;;;;;5093505;28;20468;-60
2023/05/12 05:30:39;;;;;;;7.43;5.00;;;12.20;99.90;;;;;;5089541;28;20515;-60
2023/05/12 05:33:06;;;;;;;5.30;4.80;;;12.20;99.90;;;;;;5075686;28;20497;-60
2023/05/12 05:35:33;;;;;;;5.20;4.70;;;12.20;99.90;;;;;;5074230;28;20481;-60
2023/05/12 05:38:00;;;;;;;5.30;4.80;;;12.20;99.90;;;;;;5074108;28;20464;-60
2023/05/12 05:40:28;;;;;;;5.47;4.93;;;12.30;99.90;;;;;;5074759;28;20847;-59
2023/05/12 05:42:55;;;;;;;5.93;5.43;;;12.30;99.90;;;;;;5074039;28;20780;-59
2023/05/12 05:45:24;;;;;;;5.97;5.47;;;12.30;99.90;;;;;;5075307;28;20454;-57
2023/05/12 05:47:52;;;;;;;5.90;5.30;;;12.30;99.90;;;;;;5076401;28;20461;-60
2023/05/12 05:50:19;;;;;;;7.40;5.53;;;12.40;99.90;;;;;;5075981;28;20465;-60
2023/05/12 05:52:46;;;;;;;10.00;5.93;;;12.40;99.90;;;;;;5060401;28;20455;-60
2023/05/12 05:55:13;;;;;;;7.47;5.97;;;12.40;99.90;;;;;;5056482;28;20977;-60
2023/05/12 05:57:41;;;;;;;6.80;6.10;;;12.40;99.90;;;;;;5057368;28;20481;-59
2023/05/12 06:00:11;;;;;;;9.23;6.50;;;12.40;99.90;;;;;;5057146;28;20505;-60
2023/05/12 06:02:40;;;;;;;7.10;6.40;;;12.50;99.90;;;;;;5057181;28;20911;-58
2023/05/12 06:05:07;;;;;;;8.17;7.10;;;12.50;99.90;;;;;;5056880;28;20915;-58
2023/05/12 06:07:35;;;;;;;9.23;7.33;;;12.60;99.90;;;;;;5057284;28;20741;-58
2023/05/12 06:10:03;;;;;;;7.43;6.57;;;12.70;99.90;;;;;;5056956;28;20437;-56
2023/05/12 06:12:30;;;;;;;8.63;6.30;;;12.80;99.90;;;;;;5072569;28;20527;-58
2023/05/12 06:14:57;;;;;;;11.73;6.97;;;12.80;99.90;;;;;;5075318;28;20486;-55
2023/05/12 06:17:24;;;;;;;7.00;6.30;;;12.90;99.90;;;;;;5076791;28;20975;-58
2023/05/12 06:19:53;;;;;;;7.90;6.43;;;13.00;99.90;;;;;;5076242;28;20468;-59
2023/05/12 06:22:23;;;;;;;7.43;6.63;;;13.10;99.90;;;;;;5077078;28;20436;-57
2023/05/12 06:24:51;;;;;;;5.53;5.03;;;13.20;99.90;;;;;;5076898;28;20461;-56
2023/05/12 06:27:18;;;;;;;8.90;5.80;;;13.30;99.90;;;;;;5076897;28;20465;-56
2023/05/12 06:29:45;;;;;;;6.63;5.80;;;13.30;99.90;;;;;;5077020;28;20460;-53
2023/05/12 06:32:12;;;;;;;7.77;6.00;;;13.40;99.90;;;;;;5087931;28;20583;-56
2023/05/12 06:34:39;;;;;;;6.03;5.27;;;13.40;99.90;;;;;;5097403;28;20467;-59
2023/05/12 06:37:08;;;;;;;7.10;6.40;;;13.50;99.90;;;;;;5097064;28;20752;-59
2023/05/12 06:39:35;;;;;;;7.63;5.17;;;13.50;99.90;;;;;;5096909;28;20464;-57
2023/05/12 06:42:02;;;;;;;7.33;6.50;;;13.50;99.90;;;;;;5097034;28;20898;-58
2023/05/12 06:44:29;;;;;;;6.60;6.00;;;13.50;99.90;;;;;;5096769;28;20457;-55
2023/05/12 06:46:57;;;;;;;6.37;5.73;;;13.40;99.90;;;;;;5096704;28;20460;-57
2023/05/12 06:49:24;;;;;;;8.17;6.50;;;13.50;99.90;;;;;;5097076;28;20441;-58
2023/05/12 06:51:51;;;;;;;6.93;5.33;;;13.50;99.90;;;;;;5096718;28;20561;-59
2023/05/12 06:54:20;;;;;;;7.20;5.57;;;13.60;99.90;;;;;;5096663;28;20460;-56
2023/05/12 06:56:47;;;;;;;7.20;5.90;;;13.60;99.90;;;;;;5088711;28;20805;-56
2023/05/12 06:59:14;;;;;;;5.57;5.07;;;13.70;99.90;;;;;;5096297;28;20434;-59
2023/05/12 07:01:41;;;;;;;6.97;5.10;;;13.70;99.90;;;;;;5093110;28;20514;-57
2023/05/12 07:04:09;;;;;;;6.07;5.20;;;13.70;99.90;;;;;;5094472;28;20440;-60
2023/05/12 07:06:36;;;;;;;5.13;4.63;;;13.80;99.90;;;;;;5095059;28;20460;-59
2023/05/12 07:09:03;;;;;;;4.97;4.50;;;13.80;99.90;;;;;;5095474;28;20435;-54
2023/05/12 07:11:32;;;;;;;5.00;4.60;;;13.70;99.90;;;;;;5095718;28;20468;-59
2023/05/12 07:13:59;;;;;;;5.50;5.00;;;13.80;99.90;;;;;;5095130;28;20878;-59
2023/05/12 07:16:26;;;;;;;5.37;4.87;;;13.90;99.90;;;;;;5095895;28;20929;-58
2023/05/12 07:18:53;;;;;;;6.70;4.80;;;13.90;99.90;;;;;;5095287;28;20460;-60
2023/05/12 07:21:20;;;;;;;5.03;4.53;;;13.80;99.90;;;;;;5094959;28;20442;-55
2023/05/12 07:23:48;;;;;;;5.13;4.57;;;13.80;99.90;;;;;;5094897;28;20766;-56
2023/05/12 07:26:15;;;;;;;5.67;5.17;;;13.80;99.90;;;;;;5093962;28;20444;-57
2023/05/12 07:28:44;;;;;;;5.47;4.97;;;13.90;99.90;;;;;;5095107;28;20516;-58
2023/05/12 07:31:11;;;;;;;5.60;4.77;;;14.00;99.90;;;;;;5093632;28;20484;-57
2023/05/12 07:33:38;;;;;;;4.90;4.40;;;14.00;99.90;;;;;;5097716;28;20452;-58
2023/05/12 07:36:07;;;;;;;5.23;4.73;;;14.00;99.90;;;;;;5097820;28;20495;-53
2023/05/12 07:38:34;;;;;;;4.80;4.40;;;14.00;99.90;;;;;;5092022;28;20514;-57
2023/05/12 07:41:02;;;;;;;5.10;4.70;;;14.00;99.90;;;;;;5098656;28;20460;-58
2023/05/12 07:43:29;;;;;;;4.87;4.47;;;14.00;99.90;;;;;;5100086;28;20471;-56
2023/05/12 07:45:59;;;;;;;6.03;4.10;;;14.10;99.90;;;;;;5095427;28;20477;-58
2023/05/12 07:48:26;;;;;;;4.73;4.33;;;14.00;99.90;;;;;;5093152;28;20873;-57
2023/05/12 07:50:54;;;;;;;5.77;4.33;;;14.00;99.90;;;;;;5090522;28;20462;-59
2023/05/12 07:53:21;;;;;;;4.90;4.40;;;14.00;99.90;;;;;;5089937;28;20753;-59
2023/05/12 07:55:48;;;;;;;4.17;3.77;;;14.10;99.90;;;;;;5100235;28;20786;-57
2023/05/12 07:58:15;;;;;;;4.67;4.27;;;14.10;99.90;;;;;;5089636;28;20901;-59
2023/05/12 08:00:43;;;;;;;5.00;4.50;;;14.20;99.90;;;;;;5090174;28;20492;-58
2023/05/12 08:03:12;;;;;;;5.90;4.00;;;14.20;99.90;;;;;;5079993;28;20465;-57
2023/05/12 08:05:39;;;;;;;7.50;3.90;;;14.10;99.90;;;;;;5093946;28;20431;-58
2023/05/12 08:08:08;;;;;;;5.10;4.10;;;14.30;99.90;;;;;;5098505;28;20464;-57
2023/05/12 08:10:35;;;;;;;4.30;3.90;;;14.30;99.90;;;;;;5097011;28;20545;-60
2023/05/12 08:13:02;;;;;;;4.40;4.00;;;14.40;99.90;;;;;;5097172;28;20452;-58
2023/05/12 08:15:29;;;;;;;4.60;4.03;;;14.50;99.90;;;;;;5097924;28;20476;-59
2023/05/12 08:17:56;;;;;;;6.20;4.20;;;14.50;99.90;;;;;;5097449;28;20453;-58
2023/05/12 08:20:25;;;;;;;4.47;3.80;;;14.50;99.90;;;;;;5097234;28;20471;-59
2023/05/12 08:22:52;;;;;;;4.70;4.00;;;14.60;99.90;;;;;;5097717;28;20471;-57
2023/05/12 08:25:20;;;;;;;4.60;3.83;;;14.70;99.90;;;;;;5097788;28;20460;-59
2023/05/12 08:27:47;;;;;;;4.90;4.40;;;14.80;99.90;;;;;;5098690;28;20770;-59
2023/05/12 08:30:14;;;;;;;5.73;4.10;;;15.00;81.60;;;;;;5095934;28;20906;-60
2023/05/12 08:32:42;;;;;;;6.67;4.73;;;15.30;1.00;;;;;;5074594;28;20717;-61
2023/05/12 08:35:09;;;;;;;4.27;3.73;;;15.40;1.00;;;;;;5070594;28;20523;-61
2023/05/12 08:37:37;;;;;;;4.77;4.07;;;15.70;99.90;;;;;;5057201;28;20868;-62
2023/05/12 08:40:15;;;;;;;7.03;4.50;;;16.10;99.90;;;;;;5063595;28;20503;-62
2023/05/12 08:42:44;;;;;;;4.47;3.93;;;16.40;99.90;;;;;;5075886;28;20511;-62
2023/05/12 08:45:12;;;;;;;4.50;4.10;;;16.60;99.90;;;;;;5076744;28;20554;-62
2023/05/12 08:47:41;;;;;;;5.00;4.30;;;16.60;99.90;;;;;;5076811;28;20457;-62
2023/05/12 08:50:10;;;;;;;5.97;4.57;;;16.50;90.60;;;;;;5076957;28;20527;-63
2023/05/12 08:52:39;;;;;;;4.70;3.87;;;16.50;99.90;;;;;;5076405;28;20497;-63
2023/05/12 08:55:09;;;;;;;5.20;4.10;;;16.70;99.90;;;;;;5060746;28;20586;-62
2023/05/12 08:57:37;;;;;;;5.90;3.97;;;16.70;92.80;;;;;;5058398;28;20462;-62
2023/05/12 09:00:07;;;;;;;4.53;4.10;;;16.80;49.90;;;;;;5058689;28;20747;-62
2023/05/12 09:02:37;;;;;;;7.37;4.47;;;17.00;40.10;;;;;;5057958;28;20508;-63
2023/05/12 09:05:05;;;;;;;5.20;3.40;;;17.10;25.80;;;;;;5056181;28;20476;-63
2023/05/12 09:07:33;;;;;;;4.23;3.83;;;17.20;1.00;;;;;;5056670;28;20561;-62
2023/05/12 09:10:05;;;;;;;6.00;3.57;;;17.30;1.00;;;;;;5056336;28;20762;-63
2023/05/12 09:12:36;;;;;;;5.30;3.70;;;17.40;1.00;;;;;;5056491;28;20899;-62
2023/05/12 09:15:06;;;;;;;3.97;3.57;;;17.60;1.00;;;;;;5056317;28;20477;-62
2023/05/12 09:17:34;;;;;;;4.40;3.57;;;17.80;1.00;;;;;;5071483;28;20548;-62
2023/05/12 09:20:02;;;;;;;4.47;4.07;;;17.80;1.00;;;;;;5075718;28;20467;-61
2023/05/12 09:22:30;;;;;;;3.90;3.47;;;17.90;1.00;;;;;;5076005;28;20457;-62
2023/05/12 09:24:57;;;;;;;4.20;3.83;;;17.90;1.00;;;;;;5073374;28;20442;-62
2023/05/12 09:27:27;;;;;;;6.90;3.97;;;17.80;1.00;;;;;;5085966;28;20495;-62
2023/05/12 09:29:54;;;;;;;6.17;3.97;;;17.80;1.00;;;;;;5081712;28;20469;-62
2023/05/12 09:32:31;;;;;;;4.90;4.50;;;17.70;1.00;;;;;;5094921;28;20484;-63
2023/05/12 09:35:03;;;;;;;4.17;3.77;;;17.70;1.00;;;;;;5096345;28;20487;-61
2023/05/12 09:37:31;;;;;;;6.10;3.73;;;17.80;1.00;;;;;;5097923;28;20806;-61
2023/05/12 09:40:01;;;;;;;4.23;3.80;;;18.00;1.00;;;;;;5097680;28;20460;-61
2023/05/12 09:42:32;;;;;;;5.07;3.30;;;18.10;1.00;;;;;;5097766;28;20533;-62
2023/05/12 09:45:00;;;;;;;5.33;4.03;;;18.20;1.00;;;;;;5097539;28;20462;-62
2023/05/12 09:47:35;;;;;;;4.33;3.93;;;18.30;1.00;;;;;;5097788;28;20558;-61
2023/05/12 09:50:03;;;;;;;6.27;4.50;;;18.10;1.00;;;;;;5097790;28;20460;-60
2023/05/12 09:52:31;;;;;;;4.63;4.20;;;18.20;1.00;;;;;;5097569;28;20471;-62
2023/05/12 09:55:07;;;;;;;3.90;3.60;;;18.10;1.00;;;;;;5096428;28;20563;-61
2023/05/12 09:57:39;;;;;;;7.50;3.60;;;18.20;1.00;;;;;;5098025;28;20456;-63
2023/05/12 10:00:10;;;;;;;3.77;3.47;;;18.10;1.00;;;;;;5097989;28;20712;-62
2023/05/12 10:02:41;;;;;;;6.80;4.23;;;18.20;1.00;;;;;;5097039;28;20468;-61
2023/05/12 10:05:14;;;;;;;5.40;3.70;;;18.40;1.00;;;;;;5097249;28;20460;-61
2023/05/12 10:07:41;;;;;;;4.13;3.73;;;18.70;1.00;;;;;;5097406;28;20435;-61
2023/05/12 10:10:11;;;;;;;5.60;3.80;;;19.00;1.00;;;;;;5097638;28;20460;-61
2023/05/12 10:12:40;;;;;;;6.30;3.83;;;19.10;1.00;;;;;;5097106;28;20457;-60
2023/05/12 10:15:11;;;;;;;4.70;3.90;;;19.10;1.00;;;;;;5097357;28;20803;-61
2023/05/12 10:17:40;;;;;;;5.23;3.97;;;18.90;1.00;;;;;;5097538;28;20460;-61
2023/05/12 10:20:08;;;;;;;4.83;4.07;;;18.90;1.00;;;;;;5097588;28;20929;-61
2023/05/12 10:22:39;;;;;;;3.87;3.53;;;19.10;1.00;;;;;;5097396;28;20560;-60
2023/05/12 10:25:08;;;;;;;5.17;3.93;;;19.30;1.00;;;;;;5097178;28;20563;-60
2023/05/12 10:27:36;;;;;;;4.07;3.67;;;19.50;1.00;;;;;;5096295;28;20881;-59
2023/05/12 10:30:07;;;;;;;4.50;4.10;;;19.80;1.00;;;;;;5096266;28;20514;-62
2023/05/12 10:32:35;;;;;;;7.47;3.80;;;19.80;1.00;;;;;;5096200;28;20460;-59
2023/05/12 10:35:08;;;;;;;4.00;3.70;;;19.90;1.00;;;;;;5097144;28;20464;-60
2023/05/12 10:37:36;;;;;;;3.80;3.50;;;19.90;1.00;;;;;;5097051;28;20503;-61
2023/05/12 10:40:05;;;;;;;4.33;3.93;;;19.80;1.00;;;;;;5097229;28;20467;-62
2023/05/12 10:42:39;;;;;;;4.00;3.70;;;20.00;1.00;;;;;;5097135;28;20558;-61
2023/05/12 10:45:17;;;;;;;5.13;4.07;;;20.30;1.00;;;;;;5093357;28;20452;-61
2023/05/12 10:47:45;;;;;;;5.30;3.90;;;20.90;1.00;;;;;;5095664;28;20464;-61
2023/05/12 10:50:13;;;;;;;4.57;4.17;;;20.90;1.00;;;;;;5096175;28;20461;-60
2023/05/12 10:52:41;;;;;;;4.80;4.37;;;20.90;1.00;;;;;;5096193;28;20893;-60
2023/05/12 10:55:13;;;;;;;4.27;3.83;;;21.20;1.00;;;;;;5095883;28;20504;-61
2023/05/12 10:57:50;;;;;;;4.70;4.30;;;21.60;1.00;;;;;;5096566;28;20496;-62
2023/05/12 11:00:24;;;;;;;4.90;3.90;;;21.90;1.00;;;;;;5098148;28;20456;-61
2023/05/12 11:02:51;;;;;;;4.37;3.60;;;22.30;1.00;;;;;;5097050;28;20442;-61
2023/05/12 11:05:18;;;;;;;4.00;3.70;;;22.60;1.00;;;;;;5096346;28;20452;-61
2023/05/12 11:07:49;;;;;;;5.10;4.70;;;22.70;1.00;;;;;;5097525;28;20558;-61
2023/05/12 11:10:17;;;;;;;5.13;4.20;;;22.20;1.00;;;;;;5093998;28;20575;-61
2023/05/12 11:12:44;;;;;;;4.60;4.20;;;21.90;99.90;;;;;;5098869;28;20438;-61
2023/05/12 11:15:13;;;;;;;5.07;4.57;;;21.50;99.90;;;;;;5099121;28;20458;-61
2023/05/12 11:17:41;;;;;;;4.57;4.20;;;21.30;99.90;;;;;;5092141;28;20463;-62
2023/05/12 11:20:09;;;;;;;4.30;3.83;;;21.10;99.90;;;;;;5098462;28;20464;-62
2023/05/12 11:22:37;;;;;;;6.10;4.10;;;21.60;99.90;;;;;;5097385;28;20427;-60
2023/05/12 11:25:11;;;;;;;4.33;4.00;;;21.60;99.90;;;;;;5084241;28;20469;-62
2023/05/12 11:27:42;;;;;;;4.43;4.03;;;21.80;99.90;;;;;;5097118;28;20539;-60
2023/05/12 11:30:10;;;;;;;5.83;4.93;;;21.90;99.90;;;;;;5112894;28;20576;-60
2023/05/12 11:32:37;;;;;;;4.73;4.40;;;21.90;99.90;;;;;;5117918;28;20466;-61
2023/05/12 11:35:11;;;;;;;5.07;4.57;;;22.20;99.90;;;;;;5090002;28;20889;-61
2023/05/12 11:37:39;;;;;;;5.30;4.80;;;22.10;99.90;;;;;;5098600;28;20791;-61
2023/05/12 11:40:17;;;;;;;5.37;4.20;;;21.40;99.90;;;;;;5099186;28;20468;-60
2023/05/12 11:42:47;;;;;;;6.80;4.73;;;21.10;99.90;;;;;;5098959;28;20455;-60
2023/05/12 11:45:25;;;;;;;4.97;4.47;;;21.30;99.90;;;;;;5098902;28;20464;-61
2023/05/12 11:47:53;;;;;;;4.53;4.13;;;21.50;99.90;;;;;;5098200;28;20511;-61
2023/05/12 11:50:24;;;;;;;5.00;4.60;;;21.40;99.90;;;;;;5098625;28;20740;-60
2023/05/12 11:52:52;;;;;;;5.13;4.63;;;21.80;99.90;;;;;;5098582;28;20464;-60
2023/05/12 11:55:24;;;;;;;4.87;4.23;;;21.70;99.90;;;;;;5096637;28;20467;-60
2023/05/12 11:58:01;;;;;;;5.30;4.40;;;22.40;99.90;;;;;;5097707;28;20913;-61
2023/05/12 12:00:34;;;;;;;4.20;3.87;;;23.20;99.90;;;;;;5097533;28;20452;-61
2023/05/12 12:03:10;;;;;;;8.00;4.40;;;23.50;99.90;;;;;;5098045;28;20462;-61
2023/05/12 12:05:39;;;;;;;6.70;4.43;;;24.40;99.90;;;;;;5097285;28;20463;-61
2023/05/12 12:08:07;;;;;;;9.07;3.63;;;24.40;99.90;;;;;;5096489;28;20889;-61
2023/05/12 12:10:35;;;;;;;5.93;5.53;;;24.80;99.90;;;;;;5095990;28;20781;-61
2023/05/12 12:13:02;;;;;;;5.00;4.50;;;23.70;99.90;;;;;;5097660;28;20457;-61
2023/05/12 12:15:29;;;;;;;5.13;4.73;;;23.50;99.90;;;;;;5098110;28;20708;-61
2023/05/12 12:17:57;;;;;;;5.10;4.20;;;22.60;99.90;;;;;;5095489;28;20949;-61
2023/05/12 12:20:24;;;;;;;5.10;4.70;;;22.40;99.90;;;;;;5094585;28;20563;-64
2023/05/12 12:22:54;;;;;;;5.47;4.97;;;22.60;99.90;;;;;;5091065;28;20872;-63
2023/05/12 12:25:22;;;;;;;4.83;4.43;;;23.40;99.90;;;;;;5077285;28;20439;-61
2023/05/12 12:27:49;;;;;;;5.03;4.63;;;24.20;99.90;;;;;;5094062;28;20452;-61
2023/05/12 12:30:17;;;;;;;5.27;4.80;;;23.80;99.90;;;;;;5095352;28;20449;-62
2023/05/12 12:32:44;;;;;;;5.30;4.90;;;22.50;99.90;;;;;;5095042;28;20448;-60
2023/05/12 12:35:12;;;;;;;6.17;5.67;;;21.80;99.90;;;;;;5094368;28;20468;-61
2023/05/12 12:37:40;;;;;;;5.80;5.40;;;21.60;99.90;;;;;;5096999;28;20492;-61
2023/05/12 12:40:10;;;;;;;5.63;5.07;;;22.30;99.90;;;;;;5079078;28;20440;-61
2023/05/12 12:42:40;;;;;;;5.77;5.37;;;22.50;99.90;;;;;;5078973;28;20742;-61
2023/05/12 12:45:10;;;;;;;4.93;4.53;;;22.20;99.90;;;;;;5081556;28;20555;-63
2023/05/12 12:47:38;;;;;;;6.40;5.70;;;21.70;99.90;;;;;;5078552;28;20564;-61
2023/05/12 12:50:06;;;;;;;5.97;4.70;;;21.80;99.90;;;;;;5078735;28;20497;-61
2023/05/12 12:52:33;;;;;;;5.90;5.10;;;22.10;99.90;;;;;;5078297;28;20913;-61